This is the latest recevied weather packets stored in our database for station/object DL2RXE-13. If no packets are shown the sender has not sent any weather packets the latest 10 day(s).
| Time | Temp. | Humidity | Pressure | Rain* | Wind** | Luminosity | Snow |
|---|---|---|---|---|---|---|---|
| 1777883430 | 18.89° C | 67% | 1014.1 hPa | 0 mm | - | 538 W/m² | - |
| 1777878029 | 17.22° C | 73% | 1013.3 hPa | 0 mm | - | 287 W/m² | - |
| 1777875030 | 15° C | 82% | 1013.1 hPa | 0 mm | - | 134 W/m² | - |
| 1777873229 | 14.44° C | 83% | 1012.9 hPa | 0 mm | - | 63 W/m² | - |
| 1777867230 | 13.33° C | 82% | 1012.4 hPa | 0 mm | - | 2 W/m² | - |
| 1777858829 | 14.44° C | 73% | 1012.5 hPa | 0 mm | - | 0 W/m² | - |
| 1777858249 | 15° C | 71% | 1012.3 hPa | 0 mm | - | 0 W/m² | - |
| 1777852249 | 18.89° C | 51% | 1011.7 hPa | 0 mm | - | 0 W/m² | - |
| 1777851029 | 19.44° C | 49% | 1011.5 hPa | 0 mm | - | 0 W/m² | - |
| 1777850429 | 18.89° C | 49% | 1011.6 hPa | 0 mm | - | 0 W/m² | - |
| 1777847450 | 18.89° C | 53% | 1011.4 hPa | 0 mm | - | 0 W/m² | - |
| 1777844429 | 18.89° C | 57% | 1011.3 hPa | 0 mm | - | 0 W/m² | - |
| 1777843842 | 18.33° C | 57% | 1011.2 hPa | 0 mm | - | 0 W/m² | - |
| 1777837843 | 21.11° C | 46% | 1011 hPa | 0 mm | - | 0 W/m² | - |
| 1777837248 | 21.67° C | 46% | 1011 hPa | 0 mm | - | 0 W/m² | - |
| 1777834843 | 20° C | 56% | 1010.8 hPa | 0 mm | - | 0 W/m² | - |
| 1777831849 | 22.22° C | 54% | 1010.3 hPa | 0 mm | - | 13 W/m² | - |
| 1777830650 | 22.22° C | 53% | 1010.2 hPa | 0 mm | - | 28 W/m² | - |
| 1777828229 | 25° C | 44% | 1010.3 hPa | 0 mm | - | 65 W/m² | - |
| 1777827629 | 25.56° C | 41% | 1010.3 hPa | 0 mm | - | 103 W/m² | - |
| 1777825230 | 26.11° C | 39% | 1010.4 hPa | 0 mm | - | 168 W/m² | - |
| 1777818630 | 26.67° C | 34% | 1011.4 hPa | 0 mm | - | 347 W/m² | - |
| 1777817429 | 27.22° C | 33% | 1011.6 hPa | 0 mm | - | 414 W/m² | - |
| 1777816852 | 27.78° C | 34% | 1011.6 hPa | 0 mm | - | 458 W/m² | - |
| 1777816250 | 27.78° C | 33% | 1011.8 hPa | 0 mm | - | 531 W/m² | - |
* Rain latest hour (hover to see other rain measurements)
** Current wind speed in m/s (hover to see current wind gust speed)